Long Valley, New Jersey
Current Conditions -  °F | °C
As of 9:53 AM on Thursday 23 Oct 2014 (Local Time) from KSMQ Reporting Station
Overcast Overcast  
Wind Chill: 52°   Ceiling: 2400
Heat Index: 52°   Visibility: 10mi
Dew Point: 46°   Wind: 12mph
Humidity: 80%   Direction: 340°NNW
Pressure: 29.74"   Gusts: 18mph
Location:  40.79°N, 74.77°W
Report Text: KSMQ 231353Z AUTO 34010G16KT 10SM BKN024 BKN032 OVC045 11/08 A2974 RMK AO2 RAE44 SLP070 P0005 T01110078
Loading
Personal Weather Stations






























Interactive Weather Map
Tropical Storm Tracking
New forecast layout! Learn more

10-Day Weather Forecast

Advertisements
Track Severe Weather on mobile